Time;durP1;ratioP1;P1;durP2;ratioP2;P2;SDS_P1;SDS_P2;PMS_P1;PMS_P2;Temp;Humidity;BMP_temperature;BMP_pressure;BME280_temperature;BME280_humidity;BME280_pressure;Samples;Min_cycle;Max_cycle;Signal;HPM_P1;HPM_P2
2022/02/02 00:02:33;;;;;;;47.28;6.47;;;7.30;99.90;;;;;;5044318;28;20502;-79
2022/02/02 00:05:27;;;;;;;42.05;6.63;;;7.30;99.90;;;;;;5059508;28;20048;-79
2022/02/02 00:13:11;;;;;;;36.72;6.72;;;7.40;99.90;;;;;;5043135;28;20077;-79
2022/02/02 00:20:50;;;;;;;39.83;4.80;;;7.50;99.90;;;;;;5023546;28;20029;-79
2022/02/02 00:23:21;;;;;;;38.53;5.05;;;7.50;99.90;;;;;;5047676;28;20033;-79
2022/02/02 00:25:58;;;;;;;49.08;6.28;;;7.40;99.90;;;;;;5028875;28;20059;-79
2022/02/02 00:28:29;;;;;;;45.22;6.18;;;7.30;99.90;;;;;;5045156;28;20036;-79
2022/02/02 00:31:00;;;;;;;36.10;5.50;;;7.30;99.90;;;;;;5045492;28;20483;-79
2022/02/02 00:33:31;;;;;;;43.40;5.97;;;7.30;99.90;;;;;;5031062;28;20036;-79
2022/02/02 00:36:09;;;;;;;46.03;6.20;;;7.30;99.90;;;;;;5048099;28;20051;-79
2022/02/02 00:38:36;;;;;;;49.03;8.45;;;7.30;99.90;;;;;;5051520;28;20024;-78
2022/02/02 00:41:02;;;;;;;47.80;6.15;;;7.30;99.90;;;;;;5046259;28;20024;-78
2022/02/02 00:43:29;;;;;;;49.13;6.40;;;7.30;99.90;;;;;;5044855;28;20051;-79
2022/02/02 00:45:55;;;;;;;41.97;6.22;;;7.30;99.90;;;;;;5046005;28;20058;-79
2022/02/02 00:48:26;;;;;;;47.30;6.78;;;7.30;99.90;;;;;;5028177;28;20032;-78
2022/02/02 00:50:53;;;;;;;46.95;6.47;;;7.40;99.90;;;;;;5061311;28;20487;-79
2022/02/02 00:53:21;;;;;;;45.17;7.45;;;7.40;99.90;;;;;;5030681;28;20043;-78
2022/02/02 00:55:47;;;;;;;54.58;7.30;;;7.50;99.90;;;;;;5046245;28;20051;-79
2022/02/02 00:58:14;;;;;;;61.92;7.07;;;7.50;99.90;;;;;;5043582;28;20479;-79
2022/02/02 01:00:40;;;;;;;43.42;6.05;;;7.60;99.90;;;;;;5039726;28;20042;-79
2022/02/02 01:03:07;;;;;;;54.22;6.90;;;7.70;99.90;;;;;;5038319;28;20044;-79
2022/02/02 01:05:33;;;;;;;42.42;6.30;;;7.70;99.90;;;;;;5040829;28;20036;-79
2022/02/02 01:10:33;;;;;;;48.88;7.05;;;7.80;99.90;;;;;;5044960;28;20035;-79
2022/02/02 01:21:43;;;;;;;50.15;7.70;;;7.80;99.90;;;;;;5061825;28;20028;-79
2022/02/02 01:29:40;;;;;;;43.67;7.22;;;7.70;99.90;;;;;;5045923;28;20046;-79
2022/02/02 01:32:07;;;;;;;47.05;6.82;;;7.60;99.90;;;;;;5046316;28;20043;-80
2022/02/02 01:34:33;;;;;;;48.50;6.13;;;7.60;99.90;;;;;;5043851;28;20530;-80
2022/02/02 01:37:00;;;;;;;49.85;7.35;;;7.60;99.90;;;;;;5032667;28;20024;-80
2022/02/02 01:39:31;;;;;;;50.55;8.50;;;7.50;99.90;;;;;;5034816;28;20048;-80
2022/02/02 01:41:59;;;;;;;58.53;8.90;;;7.40;99.90;;;;;;5029709;28;20044;-79
2022/02/02 01:44:41;;;;;;;48.13;7.72;;;7.40;99.90;;;;;;5056232;28;20032;-80
2022/02/02 01:47:09;;;;;;;57.97;7.60;;;7.40;99.90;;;;;;5038697;28;20023;-79
2022/02/02 01:59:53;;;;;;;51.67;7.45;;;7.60;99.90;;;;;;5059414;28;20047;-79
2022/02/02 02:02:20;;;;;;;56.05;7.85;;;7.60;99.90;;;;;;5047233;28;20028;-79
2022/02/02 02:04:47;;;;;;;48.38;9.18;;;7.60;99.90;;;;;;5045083;28;20040;-79
2022/02/02 02:07:14;;;;;;;48.13;7.75;;;7.60;99.90;;;;;;5043820;28;20031;-79
2022/02/02 02:09:41;;;;;;;58.25;9.80;;;7.70;99.90;;;;;;5044329;28;20028;-79
2022/02/02 02:12:10;;;;;;;52.47;8.07;;;7.60;99.90;;;;;;5043483;28;20041;-79
2022/02/02 02:15:03;;;;;;;49.10;7.03;;;7.60;99.90;;;;;;5059396;28;20036;-79
2022/02/02 02:17:25;;;;;;;45.15;6.60;;;7.60;99.90;;;;;;5054384;28;20043;-79
2022/02/02 02:19:52;;;;;;;47.97;7.95;;;7.60;99.90;;;;;;5075632;28;20070;-79
2022/02/02 02:22:30;;;;;;;44.42;7.45;;;7.50;99.90;;;;;;5030401;28;20055;-79
2022/02/02 02:24:57;;;;;;;54.60;8.27;;;7.60;99.90;;;;;;5043670;28;20064;-80
2022/02/02 02:27:25;;;;;;;44.58;6.68;;;7.60;99.90;;;;;;5037461;28;20151;-79
2022/02/02 02:33:07;;;;;;;49.67;6.15;;;7.70;99.90;;;;;;5062856;28;20028;-78
2022/02/02 02:38:56;;;;;;;53.03;8.20;;;7.70;99.90;;;;;;5026621;28;20059;-79
2022/02/02 02:58:01;;;;;;;47.88;7.25;;;7.50;99.90;;;;;;5050717;28;20044;-79
2022/02/02 03:30:56;;;;;;;44.95;7.60;;;7.60;99.90;;;;;;5035858;28;20471;-80
2022/02/02 03:55:48;;;;;;;41.15;5.60;;;7.60;99.90;;;;;;5053718;28;20032;-79
2022/02/02 04:05:42;;;;;;;42.53;7.63;;;7.60;99.90;;;;;;5034009;28;20812;-78
2022/02/02 04:08:27;;;;;;;43.58;7.15;;;7.60;99.90;;;;;;5060611;28;20031;-79
2022/02/02 04:10:55;;;;;;;44.30;6.38;;;7.60;99.90;;;;;;5028152;28;20044;-79
2022/02/02 04:38:28;;;;;;;25.90;4.45;;;7.80;99.90;;;;;;5028979;28;20033;-79
2022/02/02 04:52:28;;;;;;;28.17;4.45;;;7.80;99.90;;;;;;5048709;28;20028;-78
2022/02/02 04:54:52;;;;;;;28.55;4.75;;;7.80;99.90;;;;;;5056307;28;20385;-79
2022/02/02 04:57:45;;;;;;;39.83;5.07;;;7.80;99.90;;;;;;5061209;28;20048;-79
2022/02/02 05:05:42;;;;;;;39.28;5.22;;;7.80;99.90;;;;;;5049863;28;20036;-78
2022/02/02 05:10:56;;;;;;;50.28;8.38;;;7.80;99.90;;;;;;5064372;28;20040;-78
2022/02/02 05:53:20;;;;;;;34.72;4.45;;;7.60;99.90;;;;;;5047202;28;20035;-78
2022/02/02 05:55:49;;;;;;;27.25;3.88;;;7.50;99.90;;;;;;5047400;28;20028;-78
2022/02/02 05:58:17;;;;;;;30.77;4.53;;;7.40;99.90;;;;;;5064725;28;20035;-79
2022/02/02 06:00:43;;;;;;;23.10;3.45;;;7.40;99.90;;;;;;5060586;28;20123;-78
2022/02/02 06:03:14;;;;;;;26.15;3.88;;;7.30;99.90;;;;;;5014078;28;21409;-78
2022/02/02 06:05:42;;;;;;;24.35;3.90;;;7.30;99.90;;;;;;5046701;28;21358;-78
2022/02/02 06:08:11;;;;;;;28.73;3.70;;;7.30;99.90;;;;;;5048205;28;20486;-78
2022/02/02 06:10:39;;;;;;;30.55;3.97;;;7.30;99.90;;;;;;5034087;28;20040;-78
2022/02/02 06:13:06;;;;;;;27.23;4.50;;;7.30;99.90;;;;;;5045999;28;20032;-79
2022/02/02 06:15:36;;;;;;;35.13;4.53;;;7.30;99.90;;;;;;5042637;28;20032;-78
2022/02/02 06:18:05;;;;;;;40.47;5.95;;;7.20;99.90;;;;;;5045452;28;20035;-78
2022/02/02 06:20:35;;;;;;;41.17;7.10;;;7.20;99.90;;;;;;5077259;28;20483;-78
2022/02/02 06:23:08;;;;;;;34.60;4.85;;;7.20;99.90;;;;;;5051408;28;20058;-78
2022/02/02 06:25:40;;;;;;;47.33;6.20;;;7.20;99.90;;;;;;5030761;28;20399;-78
2022/02/02 06:28:09;;;;;;;43.15;6.40;;;7.10;99.90;;;;;;5050006;28;20040;-79
2022/02/02 06:30:35;;;;;;;38.40;6.38;;;7.10;99.90;;;;;;5063653;28;20032;-78
2022/02/02 06:33:11;;;;;;;49.75;7.15;;;7.10;99.90;;;;;;5060101;28;20418;-77
2022/02/02 06:35:38;;;;;;;42.55;6.88;;;7.00;99.90;;;;;;5050112;28;20028;-78
2022/02/02 06:38:06;;;;;;;38.97;5.85;;;7.10;99.90;;;;;;5050723;28;20047;-78
2022/02/02 06:40:33;;;;;;;43.58;6.85;;;7.10;99.90;;;;;;5031907;28;20989;-79
2022/02/02 06:43:00;;;;;;;35.00;5.38;;;7.10;99.90;;;;;;5045003;28;20054;-79
2022/02/02 06:45:29;;;;;;;45.97;7.10;;;7.10;99.90;;;;;;5060463;28;20039;-79
2022/02/02 06:47:55;;;;;;;44.70;7.30;;;7.10;99.90;;;;;;5046186;28;20028;-78
2022/02/02 06:50:32;;;;;;;40.47;5.72;;;7.10;99.90;;;;;;5032430;28;20411;-78
2022/02/02 06:55:49;;;;;;;35.97;5.10;;;7.00;99.90;;;;;;5047094;28;20043;-78
2022/02/02 06:58:45;;;;;;;37.70;5.32;;;7.00;99.90;;;;;;5057405;28;20023;-79
2022/02/02 07:01:35;;;;;;;38.03;6.00;;;7.00;99.90;;;;;;5040037;28;20035;-78
2022/02/02 07:04:23;;;;;;;26.40;3.50;;;7.00;99.90;;;;;;5046083;28;20023;-79
2022/02/02 07:09:54;;;;;;;36.40;4.68;;;6.90;99.90;;;;;;5063177;28;21276;-79
2022/02/02 07:12:26;;;;;;;34.43;5.63;;;6.90;99.90;;;;;;5068053;28;20028;-80
2022/02/02 07:20:40;;;;;;;43.45;4.97;;;6.80;99.90;;;;;;5033853;28;20024;-78
2022/02/02 07:34:05;;;;;;;33.80;5.93;;;6.70;99.90;;;;;;5021275;28;21076;-78
2022/02/02 07:36:40;;;;;;;25.17;3.78;;;6.70;99.90;;;;;;5041611;28;20380;-78
2022/02/02 07:39:10;;;;;;;28.67;4.32;;;6.70;99.90;;;;;;5021160;28;20532;-80
2022/02/02 07:41:44;;;;;;;29.52;5.38;;;6.70;99.90;;;;;;5023879;28;20026;-80
2022/02/02 07:44:19;;;;;;;33.83;4.35;;;6.70;99.90;;;;;;5039819;28;20055;-78
2022/02/02 07:46:49;;;;;;;31.17;4.07;;;6.70;99.90;;;;;;5017953;28;20365;-78
2022/02/02 07:49:17;;;;;;;25.27;4.22;;;6.70;99.90;;;;;;5032323;28;20044;-76
2022/02/02 07:51:50;;;;;;;29.42;5.43;;;6.70;99.90;;;;;;5011872;28;20029;-80
2022/02/02 07:54:24;;;;;;;;;;;6.70;99.90;;;;;;5009873;28;20510;-79
2022/02/02 07:56:51;;;;;;;28.70;5.43;;;6.80;99.90;;;;;;5029304;28;19908;-79
2022/02/02 08:01:47;;;;;;;22.75;2.70;;;6.90;99.90;;;;;;5042762;28;20033;-80
2022/02/02 08:04:16;;;;;;;31.02;4.47;;;7.00;99.90;;;;;;5005858;28;20089;-80
2022/02/02 08:06:50;;;;;;;38.47;4.60;;;7.00;99.90;;;;;;5037573;28;20475;-79
2022/02/02 08:09:29;;;;;;;40.97;4.47;;;7.10;99.90;;;;;;5040587;28;20025;-79
2022/02/02 08:11:57;;;;;;;32.42;3.90;;;7.10;99.90;;;;;;5042332;28;20033;-80
2022/02/02 08:14:25;;;;;;;29.73;4.63;;;7.10;99.90;;;;;;5023413;28;20048;-80
2022/02/02 08:16:52;;;;;;;35.88;5.15;;;7.20;99.90;;;;;;5026155;28;20488;-79
2022/02/02 08:19:21;;;;;;;39.25;6.13;;;7.20;99.90;;;;;;5024486;28;20029;-79
2022/02/02 08:21:48;;;;;;;32.13;4.78;;;7.30;99.90;;;;;;5001692;28;20500;-79
2022/02/02 08:24:19;;;;;;;39.13;5.38;;;7.30;99.90;;;;;;5029712;28;20032;-80
2022/02/02 08:26:47;;;;;;;46.10;6.57;;;7.40;99.90;;;;;;5030157;28;20040;-79
2022/02/02 08:29:16;;;;;;;31.95;4.70;;;7.40;99.90;;;;;;5049194;28;20399;-79
2022/02/02 08:31:43;;;;;;;38.42;5.28;;;7.40;99.90;;;;;;5033198;28;20482;-79
2022/02/02 08:34:11;;;;;;;31.50;5.20;;;7.40;99.90;;;;;;5047397;28;20035;-79
2022/02/02 08:36:39;;;;;;;36.40;5.65;;;7.40;99.90;;;;;;5050797;28;20040;-79
2022/02/02 08:39:37;;;;;;;32.63;6.18;;;7.40;99.90;;;;;;5032176;28;20387;-79
2022/02/02 08:42:05;;;;;;;35.08;4.22;;;7.50;99.90;;;;;;5049784;28;20032;-79
2022/02/02 08:47:28;;;;;;;29.92;4.35;;;7.50;99.90;;;;;;5020535;28;20047;-79
2022/02/02 08:49:58;;;;;;;34.97;5.47;;;7.50;99.90;;;;;;5058137;28;20037;-78
2022/02/02 08:52:34;;;;;;;40.40;5.50;;;7.60;99.90;;;;;;5029729;28;20686;-79
2022/02/02 08:55:05;;;;;;;37.50;4.47;;;7.60;99.90;;;;;;5045724;28;20497;-79
2022/02/02 09:00:12;;;;;;;42.55;6.38;;;7.80;99.90;;;;;;5058634;28;20037;-78
2022/02/02 09:02:52;;;;;;;30.63;5.22;;;8.00;99.90;;;;;;5030667;28;20043;-79
2022/02/02 09:05:24;;;;;;;34.85;4.63;;;8.10;99.90;;;;;;5041914;28;20383;-77
2022/02/02 09:07:52;;;;;;;30.48;4.55;;;8.20;99.90;;;;;;5026322;28;20043;-78
2022/02/02 09:19:57;;;;;;;32.28;4.25;;;8.30;99.90;;;;;;5042267;28;20036;-77
2022/02/02 09:22:16;;;;;;;33.45;4.05;;;8.50;99.90;;;;;;5039295;28;20032;-77
2022/02/02 09:24:26;;;;;;;32.88;5.20;;;8.60;99.90;;;;;;5060173;28;20056;-77
2022/02/02 09:34:53;;;;;;;26.88;3.80;;;8.90;99.90;;;;;;5044245;28;20055;-78
2022/02/02 09:37:21;;;;;;;32.60;3.60;;;8.90;99.90;;;;;;5043903;28;20079;-78
2022/02/02 09:39:56;;;;;;;28.55;4.13;;;8.90;99.90;;;;;;5061593;28;20028;-78
2022/02/02 09:42:23;;;;;;;33.25;5.57;;;9.00;99.90;;;;;;5044519;28;20035;-78
2022/02/02 09:44:51;;;;;;;29.05;3.95;;;9.10;99.90;;;;;;5054204;28;20795;-78
2022/02/02 09:47:27;;;;;;;30.10;5.10;;;9.10;99.90;;;;;;5056260;28;20039;-79
2022/02/02 09:50:09;;;;;;;30.27;3.42;;;9.20;99.90;;;;;;5012720;28;20045;-78
2022/02/02 09:52:41;;;;;;;30.08;5.25;;;9.20;99.90;;;;;;5045175;28;20036;-78
2022/02/02 09:58:24;;;;;;;42.65;6.10;;;9.40;99.90;;;;;;4992748;28;20399;-78
2022/02/02 10:01:02;;;;;;;44.88;7.30;;;9.50;99.90;;;;;;5043704;28;20043;-79
2022/02/02 10:03:52;;;;;;;40.63;6.00;;;9.50;99.90;;;;;;5033318;28;20051;-79
2022/02/02 10:14:35;;;;;;;37.10;5.93;;;9.80;99.90;;;;;;5032856;28;20044;-79
2022/02/02 10:17:08;;;;;;;38.65;5.88;;;9.80;99.90;;;;;;5045219;28;20043;-79
2022/02/02 10:19:36;;;;;;;52.65;6.75;;;9.80;99.90;;;;;;5061892;28;20032;-78
2022/02/02 10:22:29;;;;;;;34.33;5.15;;;9.80;99.90;;;;;;5062447;28;20031;-77
2022/02/02 10:25:00;;;;;;;34.17;6.10;;;9.80;99.90;;;;;;5027580;28;20499;-78
2022/02/02 10:27:34;;;;;;;39.55;5.50;;;9.90;99.90;;;;;;5033194;28;20020;-78
2022/02/02 10:30:10;;;;;;;34.72;5.25;;;9.80;99.90;;;;;;5046013;28;20459;-80
2022/02/02 10:32:39;;;;;;;41.28;6.78;;;9.90;99.90;;;;;;5064548;28;20028;-79
2022/02/02 10:35:07;;;;;;;34.50;5.40;;;10.00;99.90;;;;;;5048086;28;20043;-79
2022/02/02 10:37:36;;;;;;;34.33;5.82;;;10.10;99.90;;;;;;5029333;28;20032;-79
2022/02/02 10:40:03;;;;;;;37.95;6.88;;;10.30;99.90;;;;;;5063391;28;20020;-79
2022/02/02 10:42:42;;;;;;;36.42;6.22;;;10.40;99.90;;;;;;5036718;28;20040;-78
2022/02/02 10:45:25;;;;;;;42.08;7.00;;;10.50;99.90;;;;;;5046593;28;20053;-79
2022/02/02 10:48:02;;;;;;;41.67;7.60;;;10.70;99.90;;;;;;5049678;28;20032;-79
2022/02/02 10:50:40;;;;;;;45.63;6.40;;;10.80;99.90;;;;;;5046942;28;20055;-79
2022/02/02 11:01:07;;;;;;;32.55;5.70;;;11.20;99.90;;;;;;5060899;28;20371;-79
2022/02/02 11:09:09;;;;;;;31.08;5.22;;;11.50;99.90;;;;;;5045481;28;20043;-79
2022/02/02 11:11:41;;;;;;;25.15;4.90;;;11.40;99.90;;;;;;5030031;28;20367;-78
2022/02/02 11:14:36;;;;;;;39.47;6.07;;;11.30;99.90;;;;;;5076231;28;20040;-79
2022/02/02 11:17:25;;;;;;;29.80;5.47;;;11.20;99.90;;;;;;5046373;28;20024;-78
2022/02/02 11:20:01;;;;;;;27.83;4.78;;;11.00;99.90;;;;;;5033754;28;20479;-78
2022/02/02 11:22:32;;;;;;;30.23;5.18;;;10.80;99.90;;;;;;5062601;28;20032;-78
2022/02/02 11:25:02;;;;;;;28.77;4.78;;;10.70;99.90;;;;;;5063033;28;21458;-78
2022/02/02 11:27:39;;;;;;;30.08;4.65;;;10.70;99.90;;;;;;5047949;28;20029;-79
2022/02/02 11:30:30;;;;;;;28.67;5.35;;;10.70;99.90;;;;;;5064459;28;20513;-78
2022/02/02 11:32:59;;;;;;;28.52;4.60;;;10.70;99.90;;;;;;5076809;28;20051;-79
2022/02/02 11:35:39;;;;;;;29.73;4.90;;;10.50;99.90;;;;;;5060604;28;20075;-77
2022/02/02 11:38:34;;;;;;;30.25;4.80;;;10.40;99.90;;;;;;5027403;28;20376;-79
2022/02/02 11:41:09;;;;;;;30.80;5.05;;;10.10;99.90;;;;;;5046309;28;20012;-77
2022/02/02 11:43:58;;;;;;;32.65;4.65;;;10.00;99.90;;;;;;5059450;28;20032;-78
2022/02/02 11:49:23;;;;;;;30.48;5.72;;;9.70;99.90;;;;;;5064059;28;20008;-78
2022/02/02 11:51:54;;;;;;;25.38;3.92;;;9.70;99.90;;;;;;5048031;28;20031;-77
2022/02/02 11:54:44;;;;;;;26.33;3.20;;;9.70;99.90;;;;;;5049082;28;20055;-78
2022/02/02 11:57:19;;;;;;;37.85;4.65;;;9.70;99.90;;;;;;5063586;28;20032;-79
2022/02/02 12:57:42;;;;;;;21.10;3.00;;;11.20;99.90;;;;;;5070228;28;20035;-79
2022/02/02 13:00:22;;;;;;;14.07;2.05;;;11.00;99.90;;;;;;5032135;28;20020;-78
2022/02/02 13:02:51;;;;;;;19.98;2.28;;;10.90;99.90;;;;;;5047045;28;20867;-79
2022/02/02 13:05:24;;;;;;;15.85;2.42;;;10.70;99.90;;;;;;5044634;28;20036;-79
2022/02/02 13:07:57;;;;;;;19.63;2.70;;;10.60;99.90;;;;;;5077555;28;20059;-78
2022/02/02 13:10:26;;;;;;;16.17;2.03;;;10.60;99.90;;;;;;5046172;28;20149;-79
2022/02/02 13:13:14;;;;;;;14.35;2.40;;;10.50;99.90;;;;;;5027950;28;20059;-79
2022/02/02 13:15:57;;;;;;;15.18;2.63;;;10.50;99.90;;;;;;5043916;28;20104;-79
2022/02/02 13:18:39;;;;;;;14.63;2.72;;;10.40;99.90;;;;;;5034403;28;20055;-79
2022/02/02 13:21:18;;;;;;;13.02;1.60;;;10.30;99.90;;;;;;5064204;28;21058;-79
2022/02/02 13:24:14;;;;;;;19.40;2.30;;;10.30;99.90;;;;;;5058904;28;20051;-78
2022/02/02 13:56:17;;;;;;;14.23;1.65;;;9.90;99.90;;;;;;5046240;28;20052;-79
2022/02/02 13:59:46;;;;;;;10.68;1.17;;;9.90;99.90;;;;;;5029842;28;20032;-79
2022/02/02 14:01:45;;;;;;;13.68;1.45;;;9.90;99.90;;;;;;5052038;28;20039;-77
2022/02/02 14:04:36;;;;;;;14.15;1.63;;;9.90;99.90;;;;;;5034311;28;20052;-81
2022/02/02 14:31:37;;;;;;;15.15;2.67;;;9.70;99.90;;;;;;5044746;28;20392;-82
2022/02/02 14:34:04;;;;;;;18.15;4.13;;;9.70;99.90;;;;;;5056246;28;20040;-81
2022/02/02 14:36:35;;;;;;;16.42;3.45;;;9.70;99.90;;;;;;5060136;28;20484;-81
2022/02/02 14:39:17;;;;;;;13.00;2.60;;;9.80;99.90;;;;;;5061521;28;20055;-79
2022/02/02 14:41:49;;;;;;;11.82;1.70;;;9.70;99.90;;;;;;5047087;28;20048;-79
2022/02/02 14:44:30;;;;;;;17.63;1.98;;;9.70;99.90;;;;;;5041212;28;20033;-80
2022/02/02 14:47:04;;;;;;;12.88;1.77;;;9.70;99.90;;;;;;5058532;28;20485;-80
2022/02/02 14:49:44;;;;;;;13.73;1.73;;;9.70;99.90;;;;;;5058269;28;20036;-80
2022/02/02 14:52:25;;;;;;;18.15;2.42;;;9.70;99.90;;;;;;5043670;28;20547;-80
2022/02/02 15:09:14;;;;;;;15.00;2.50;;;9.40;99.90;;;;;;5033414;28;20041;-80
2022/02/02 15:30:31;;;;;;;8.88;1.00;;;9.20;99.90;;;;;;5040852;28;20048;-80
2022/02/02 15:33:03;;;;;;;9.40;1.55;;;9.20;99.90;;;;;;5025845;28;20040;-80
2022/02/02 15:35:32;;;;;;;7.97;1.20;;;9.10;99.90;;;;;;5056810;28;20041;-80
2022/02/02 15:38:05;;;;;;;7.25;0.82;;;9.00;99.90;;;;;;5005751;28;20281;-81
2022/02/02 15:40:44;;;;;;;10.35;1.08;;;9.00;99.90;;;;;;5038711;28;20045;-80
2022/02/02 15:43:35;;;;;;;8.77;1.02;;;8.90;99.90;;;;;;5043619;28;20040;-80
2022/02/02 16:05:29;;;;;;;8.63;1.50;;;8.50;99.90;;;;;;4991974;28;20029;-81
2022/02/02 16:08:02;;;;;;;11.45;1.27;;;8.40;99.90;;;;;;5037630;28;20052;-76
2022/02/02 16:10:41;;;;;;;8.80;0.98;;;8.40;99.90;;;;;;5036128;28;20079;-80
2022/02/02 16:13:25;;;;;;;14.45;1.30;;;8.30;99.90;;;;;;5006349;28;20047;-80
2022/02/02 16:15:56;;;;;;;15.05;2.05;;;8.20;99.90;;;;;;5010282;28;20064;-80
2022/02/02 16:37:55;;;;;;;13.27;2.95;;;7.80;99.90;;;;;;5052840;28;20388;-82
2022/02/02 16:40:30;;;;;;;13.13;2.33;;;7.80;99.90;;;;;;5027914;28;20048;-82
2022/02/02 16:45:38;;;;;;;15.45;2.70;;;7.70;99.90;;;;;;5024107;28;20132;-83
2022/02/02 16:48:15;;;;;;;9.05;1.67;;;7.70;99.90;;;;;;5005230;28;20033;-85
2022/02/02 16:50:46;;;;;;;15.13;2.70;;;7.70;99.90;;;;;;5022990;28;20029;-79
2022/02/02 16:56:21;;;;;;;;;;;7.60;99.90;;;;;;5010899;28;20037;-85
2022/02/02 17:30:12;;;;;;;16.25;2.45;;;8.10;99.90;;;;;;5025312;28;20048;-88
2022/02/02 17:32:55;;;;;;;15.05;2.40;;;8.10;99.90;;;;;;5024181;28;20040;-86
2022/02/02 17:43:33;;;;;;;14.77;3.47;;;8.20;99.90;;;;;;5023233;28;20029;-84
2022/02/02 18:13:24;;;;;;;16.27;2.58;;;8.40;99.90;;;;;;5058880;28;20037;-86
2022/02/02 18:21:08;;;;;;;24.42;3.88;;;8.40;99.90;;;;;;5027855;28;21622;-82
2022/02/02 18:23:51;;;;;;;14.63;2.50;;;8.40;99.90;;;;;;5006237;28;20036;-84
2022/02/02 18:26:33;;;;;;;;;;;8.40;99.90;;;;;;5034638;28;20412;-84
2022/02/02 18:31:52;;;;;;;16.85;2.78;;;8.30;99.90;;;;;;5044578;28;20040;-84
2022/02/02 18:34:44;;;;;;;20.08;3.30;;;8.30;99.90;;;;;;5028912;28;20032;-85
2022/02/02 18:38:08;;;;;;;14.73;3.60;;;8.30;99.90;;;;;;5042198;28;20048;-84
2022/02/02 18:56:02;;;;;;;23.38;7.25;;;8.40;99.90;;;;;;5072414;28;20215;-84
2022/02/02 18:58:39;;;;;;;20.10;5.93;;;8.40;99.90;;;;;;5059314;28;20039;-84
2022/02/02 19:01:30;;;;;;;24.25;6.90;;;8.40;99.90;;;;;;5062980;28;20696;-84
2022/02/02 19:56:41;;;;;;;16.05;9.95;;;8.70;99.90;;;;;;5026068;28;20095;-85
2022/02/02 20:02:39;;;;;;;22.38;10.43;;;8.70;99.90;;;;;;5028558;28;20044;-84
2022/02/02 20:07:44;;;;;;;10.43;6.32;;;8.80;99.90;;;;;;4958785;28;20525;-85
2022/02/02 20:10:33;;;;;;;16.75;8.00;;;8.80;99.90;;;;;;5018403;28;20041;-85
2022/02/02 20:13:06;;;;;;;16.65;8.88;;;8.80;99.90;;;;;;5042793;28;20567;-81
2022/02/02 20:15:39;;;;;;;19.10;9.60;;;8.80;99.90;;;;;;5039573;28;20037;-86
2022/02/02 20:18:34;;;;;;;;;;;;;;;;;;;;;
2022/02/02 20:21:06;;;;;;;15.52;8.25;;;8.80;99.90;;;;;;5030028;28;20029;-83
2022/02/02 20:23:33;;;;;;;13.68;8.88;;;8.80;99.90;;;;;;5042586;28;20028;-84
2022/02/02 20:26:11;;;;;;;12.02;7.07;;;8.80;99.90;;;;;;5044119;28;20404;-87
2022/02/02 20:28:40;;;;;;;18.27;12.10;;;8.90;99.90;;;;;;5011917;28;20056;-86
2022/02/02 20:31:34;;;;;;;;;;;;;;;;;;;;;
2022/02/02 20:34:05;;;;;;;39.22;22.48;;;8.90;99.90;;;;;;5052479;28;20037;-86
2022/02/02 20:36:39;;;;;;;40.35;25.67;;;8.90;99.90;;;;;;5038577;28;20048;-86
2022/02/02 20:41:56;;;;;;;20.98;13.13;;;8.90;99.90;;;;;;5024460;28;20139;-87
2022/02/02 20:44:41;;;;;;;21.95;14.07;;;8.90;99.90;;;;;;5011647;28;20041;-86
2022/02/02 21:09:54;;;;;;;30.42;17.40;;;9.00;99.90;;;;;;4994583;28;20030;-84
2022/02/02 21:15:13;;;;;;;31.65;17.02;;;9.00;99.90;;;;;;5023794;28;20366;-85
2022/02/02 21:17:41;;;;;;;28.75;16.23;;;9.00;99.90;;;;;;5019607;28;20040;-85
2022/02/02 21:20:24;;;;;;;25.65;16.10;;;9.00;99.90;;;;;;5042721;28;20697;-84
2022/02/02 21:23:10;;;;;;;26.70;15.70;;;8.90;99.90;;;;;;5027074;28;20041;-85
2022/02/02 21:25:58;;;;;;;33.17;16.40;;;9.00;99.90;;;;;;5049756;28;20040;-86
2022/02/02 21:33:08;;;;;;;36.00;17.85;;;9.00;99.90;;;;;;5086615;28;20046;-87
2022/02/02 21:35:27;;;;;;;;;;;9.00;99.90;;;;;;5077399;28;20063;-85
2022/02/02 21:38:27;;;;;;;28.35;16.33;;;9.00;99.90;;;;;;5041264;28;19923;-87
2022/02/02 21:40:57;;;;;;;27.17;16.17;;;9.00;99.90;;;;;;5081238;28;20043;-80
2022/02/02 21:43:30;;;;;;;36.40;18.63;;;9.00;99.90;;;;;;5049925;28;20043;-85
2022/02/02 21:45:57;;;;;;;29.45;16.60;;;9.00;99.90;;;;;;5051392;28;20036;-82
2022/02/02 21:48:33;;;;;;;29.65;17.35;;;9.00;99.90;;;;;;5063367;28;20495;-84
2022/02/02 21:51:08;;;;;;;32.55;17.83;;;9.00;99.90;;;;;;5021290;28;20028;-83
2022/02/02 21:53:35;;;;;;;26.75;16.13;;;9.00;99.90;;;;;;5078701;28;20043;-81
2022/02/02 21:56:03;;;;;;;26.27;16.83;;;9.10;99.90;;;;;;5065298;28;20036;-81
2022/02/02 21:58:29;;;;;;;31.05;17.60;;;9.00;99.90;;;;;;5030557;28;20387;-81
2022/02/02 22:00:56;;;;;;;35.15;18.88;;;9.10;99.90;;;;;;5050104;28;20028;-79
2022/02/02 22:03:23;;;;;;;31.65;16.83;;;9.10;99.90;;;;;;5067415;28;20110;-81
2022/02/02 22:05:49;;;;;;;44.42;22.23;;;9.10;99.90;;;;;;5053540;28;20035;-82
2022/02/02 22:08:16;;;;;;;34.88;20.60;;;9.10;99.90;;;;;;5049071;28;20467;-81
2022/02/02 22:10:47;;;;;;;38.15;20.55;;;9.10;99.90;;;;;;5070402;28;20036;-86
2022/02/02 22:13:16;;;;;;;34.03;18.75;;;9.10;99.90;;;;;;5051163;28;20475;-81
2022/02/02 22:15:51;;;;;;;34.47;19.50;;;9.10;99.90;;;;;;5066073;28;20032;-82
2022/02/02 22:18:18;;;;;;;34.63;19.17;;;9.10;99.90;;;;;;5039495;28;20040;-81
2022/02/02 22:20:46;;;;;;;32.75;19.00;;;9.10;99.90;;;;;;5064264;28;20032;-82
2022/02/02 22:23:16;;;;;;;47.50;25.30;;;9.10;99.90;;;;;;5034651;28;20063;-81
2022/02/02 22:25:43;;;;;;;40.10;22.45;;;9.10;99.90;;;;;;5048445;28;20044;-81
2022/02/02 22:28:10;;;;;;;44.95;24.15;;;9.10;99.90;;;;;;5025833;28;20053;-81
2022/02/02 22:30:36;;;;;;;49.40;26.88;;;9.10;99.90;;;;;;5064723;28;20036;-81
2022/02/02 22:33:03;;;;;;;36.90;21.63;;;9.10;99.90;;;;;;5035576;28;20120;-79
2022/02/02 22:35:29;;;;;;;33.03;20.20;;;9.10;99.90;;;;;;5039931;28;20051;-81
2022/02/02 22:37:56;;;;;;;33.03;20.20;;;9.10;99.90;;;;;;5034682;28;20040;-80
2022/02/02 22:40:25;;;;;;;34.17;19.90;;;9.20;99.90;;;;;;5051834;28;20498;-81
2022/02/02 22:42:52;;;;;;;32.40;19.73;;;9.10;99.90;;;;;;5045466;28;20510;-80
2022/02/02 22:45:18;;;;;;;29.27;16.80;;;9.10;99.90;;;;;;5033408;28;20028;-80
2022/02/02 22:47:47;;;;;;;33.78;18.67;;;9.10;99.90;;;;;;5037534;28;20040;-82
2022/02/02 22:50:16;;;;;;;34.40;19.83;;;9.20;99.90;;;;;;5064114;28;20036;-83
2022/02/02 22:52:47;;;;;;;30.42;19.83;;;9.20;99.90;;;;;;5067978;28;20047;-81
2022/02/02 22:55:16;;;;;;;28.70;19.23;;;9.20;99.90;;;;;;5052502;28;20036;-83
2022/02/02 22:57:43;;;;;;;30.45;18.88;;;9.20;99.90;;;;;;5065118;28;20024;-82
2022/02/02 23:00:15;;;;;;;37.58;23.00;;;9.20;99.90;;;;;;5068552;28;20047;-83
2022/02/02 23:05:17;;;;;;;38.53;23.98;;;9.20;99.90;;;;;;5051920;28;20035;-81
2022/02/02 23:07:44;;;;;;;30.83;19.75;;;9.20;99.90;;;;;;5051908;28;20039;-81
2022/02/02 23:10:10;;;;;;;34.10;21.90;;;9.20;99.90;;;;;;5067651;28;20150;-81
2022/02/02 23:12:37;;;;;;;47.05;25.83;;;9.20;99.90;;;;;;5067231;28;20051;-81
2022/02/02 23:15:09;;;;;;;37.30;22.77;;;9.20;99.90;;;;;;5051645;28;20028;-81
2022/02/02 23:17:37;;;;;;;40.50;25.90;;;9.20;99.90;;;;;;5033933;28;20475;-82
2022/02/02 23:20:06;;;;;;;39.38;24.42;;;9.20;99.90;;;;;;5061478;28;20035;-81
2022/02/02 23:22:35;;;;;;;40.72;25.98;;;9.20;99.90;;;;;;5084526;28;20041;-82
2022/02/02 23:25:07;;;;;;;38.88;24.30;;;9.20;99.90;;;;;;5069062;28;20379;-81
2022/02/02 23:27:36;;;;;;;43.92;26.83;;;9.20;99.90;;;;;;5067580;28;20047;-82
2022/02/02 23:30:07;;;;;;;43.50;28.63;;;9.20;99.90;;;;;;5049833;28;20043;-81
2022/02/02 23:32:36;;;;;;;43.92;26.15;;;9.20;99.90;;;;;;5076566;28;20031;-81
2022/02/02 23:35:03;;;;;;;38.33;24.48;;;9.20;99.90;;;;;;5048401;28;20029;-82
2022/02/02 23:37:31;;;;;;;42.22;25.42;;;9.20;99.90;;;;;;5054944;28;20039;-83
2022/02/02 23:39:59;;;;;;;43.42;28.95;;;9.20;99.90;;;;;;5031322;28;20039;-83
2022/02/02 23:42:31;;;;;;;42.97;26.48;;;9.20;99.90;;;;;;5042988;28;20114;-82
2022/02/02 23:44:57;;;;;;;33.75;22.73;;;9.20;99.90;;;;;;5090173;28;20047;-82
2022/02/02 23:47:28;;;;;;;40.08;26.08;;;9.20;99.90;;;;;;5067383;28;20055;-81
2022/02/02 23:50:01;;;;;;;34.80;24.25;;;9.20;99.90;;;;;;5070017;28;20020;-82
2022/02/02 23:52:53;;;;;;;35.25;24.50;;;9.20;99.90;;;;;;5052534;28;20028;-83
2022/02/02 23:55:34;;;;;;;37.63;24.40;;;9.20;99.90;;;;;;5031539;28;20371;-82
